Parma, Michigan
Current Conditions -  °F | °C
As of 11:56 AM on Friday 28 Nov 2014 (Local Time) from KJXN Reporting Station
Broken Clouds Broken Clouds  
Wind Chill: 15°   Ceiling: 2300
Heat Index: 25°   Visibility: 10mi
Dew Point: 16°   Wind: 10mph
Humidity: 69%   Direction: 200°SSW
Pressure: 30.24"   Gusts: NA
Location:  42.26°N, 84.6°W
Report Text: KJXN 281656Z 20009KT 10SM BKN023 M04/M09 A3024 RMK AO2 SLP257 T10391089
Loading
Personal Weather Stations






























Interactive Weather Map New forecast layout! Learn more

10-Day Weather Forecast

Advertisements
Track Severe Weather on mobile